Afton, Texas
Current Conditions -  °F | °C
As of 10:53 AM on Saturday 25 Oct 2014 (Local Time) from KCDS Reporting Station
Clear Clear  
Wind Chill: 77°   Ceiling: Unl
Heat Index: 78°   Visibility: 10mi
Dew Point: 54°   Wind: 9mph
Humidity: 45%   Direction: 280°W
Pressure: 30.15"   Gusts: NA
Location:  33.76°N, 100.82°W
Report Text: KCDS 251553Z AUTO 28008KT 10SM CLR 25/12 A3015 RMK AO2 SLP187 T02500122
Loading
Personal Weather Stations






























Interactive Weather Map
Tropical Storm Tracking
New forecast layout! Learn more

10-Day Weather Forecast

Advertisements
Track Severe Weather on mobile